02:05 Langlaufen Seefeld Skating
Ort Seefeld Datum 21.01.2016 17:39:07
Kategorie Langlaufen
Distanz 29,34 Kilometer Steigung 235,0 Meter Gefälle -224,0 Meter
Gesamt Zeit 02:04:40 Aktiv 02:04:40 Pause 00:00:00
Durchs. Tempo 00:04:14 min/km Tempo max. 00:02:55 min/km Tempo min. 00:07:15 min/km
Kalorien 0 Durchs. HF 125 BPM HF max. 141 BPM
Wetter -5 °C Clear Min/Max: -5,6 °C/-5,3 °C; Druck: 1027,9 mbar; Rel. Feuchte: 85,2%; Taupunkt: -4,2 °C; Windgeschwindigkeit: 0,0 km/h; Niederschlag: 0,0mm
Ausrüstung Salomon - Equipe 10 SK
Salomon - RS Carbon
Notiz Seefeld Skating ... 10x Nachtloipe, nicht allzu schnell, aber super gespurt, windig, nicht allzu kalt - locker ... garmin connect
Splits
Distanz (km) Gesamt Zeit Split Zeit Split Tempo Split Tempo Höhenprofil (m)
1,00 00:04:08 00:04:08 00:04:09 14,5 1,28
2,00 00:08:29 00:04:21 00:04:21 13,8 8,68
3,00 00:12:25 00:03:55 00:03:55 15,3 -9,98
4,00 00:16:30 00:04:04 00:04:05 14,7 2,04
5,00 00:20:44 00:04:14 00:04:15 14,1 7,91
6,00 00:24:33 00:03:48 00:03:49 15,7 -9,95
7,00 00:28:43 00:04:09 00:04:09 14,4 4,24
8,00 00:32:52 00:04:09 00:04:10 14,4 5,53
9,00 00:36:58 00:04:05 00:04:06 14,6 -9,77
10,00 00:41:32 00:04:33 00:04:34 13,2 5,82
11,00 00:45:40 00:04:07 00:04:08 14,5 3,72
12,00 00:49:42 00:04:02 00:04:03 14,8 -9,55
13,00 00:54:18 00:04:35 00:04:36 13,0 6,60
14,00 00:58:27 00:04:08 00:04:09 14,5 2,50
15,00 01:02:28 00:04:01 00:04:01 14,9 -9,11
16,00 01:07:06 00:04:37 00:04:37 13,0 6,96
17,00 01:11:25 00:04:18 00:04:19 13,9 1,44
18,00 01:15:22 00:03:57 00:03:57 15,2 -8,40
19,00 01:20:02 00:04:39 00:04:40 12,9 7,57
20,00 01:24:17 00:04:15 00:04:15 14,1 0,07
21,00 01:28:29 00:04:12 00:04:13 14,2 -7,64
22,00 01:33:03 00:04:33 00:04:34 13,1 8,12
23,00 01:37:17 00:04:13 00:04:13 14,2 -1,21
24,00 01:41:15 00:03:58 00:03:58 15,1 -6,92
25,00 01:45:57 00:04:41 00:04:42 12,8 8,95
26,00 01:50:09 00:04:12 00:04:12 14,3 -2,74
27,00 01:54:11 00:04:01 00:04:02 14,9 -6,21
28,00 01:58:49 00:04:38 00:04:38 12,9 9,63
29,00 02:02:51 00:04:01 00:04:02 14,9 -4,08
29,42 02:04:40 00:01:48 00:04:16 14,1 -5,41